createdAt,value
2022-11-15T00:00:55.323Z,27.73
2022-11-15T00:03:25.100Z,26.90
2022-11-15T00:05:53.070Z,27.10
2022-11-15T00:08:21.241Z,27.60
2022-11-15T00:10:58.053Z,26.63
2022-11-15T00:13:25.926Z,27.53
2022-11-15T00:15:54.297Z,28.53
2022-11-15T00:18:22.523Z,27.57
2022-11-15T00:20:50.371Z,26.83
2022-11-15T00:23:18.317Z,28.17
2022-11-15T00:25:46.230Z,27.43
2022-11-15T00:28:15.526Z,26.50
2022-11-15T00:30:43.403Z,28.70
2022-11-15T00:33:11.978Z,27.30
2022-11-15T00:35:39.920Z,25.53
2022-11-15T00:38:07.900Z,24.67
2022-11-15T00:40:35.893Z,25.10
2022-11-15T00:43:03.795Z,25.20
2022-11-15T00:45:33.075Z,26.00
2022-11-15T00:48:00.928Z,25.13
2022-11-15T00:50:28.861Z,23.57
2022-11-15T00:52:56.842Z,22.70
2022-11-15T00:55:24.770Z,24.57
2022-11-15T00:57:52.707Z,22.23
2022-11-15T01:00:20.804Z,23.53
2022-11-15T01:02:50.065Z,24.60
2022-11-15T01:05:18.312Z,22.13
2022-11-15T01:07:46.344Z,23.17
2022-11-15T01:10:17.179Z,23.30
2022-11-15T01:12:45.556Z,22.40
2022-11-15T01:15:13.835Z,22.20
2022-11-15T01:17:42.391Z,22.87
2022-11-15T01:20:12.616Z,22.20
2022-11-15T01:22:40.440Z,21.87
2022-11-15T01:25:08.644Z,22.47
2022-11-15T01:27:36.643Z,21.37
2022-11-15T01:30:05.721Z,22.50
2022-11-15T01:32:34.089Z,23.20
2022-11-15T01:35:02.193Z,22.97
2022-11-15T01:37:31.464Z,23.33
2022-11-15T01:39:59.634Z,22.33
2022-11-15T01:42:27.558Z,21.27
2022-11-15T01:44:55.923Z,23.33
2022-11-15T01:47:27.852Z,21.90
2022-11-15T01:50:02.916Z,21.83
2022-11-15T01:52:34.992Z,22.37
2022-11-15T01:55:11.768Z,21.73
2022-11-15T01:57:40.187Z,21.37
2022-11-15T02:00:09.548Z,22.20
2022-11-15T02:02:40.677Z,24.30
2022-11-15T02:05:09.384Z,23.23
2022-11-15T02:07:39.164Z,22.87
2022-11-15T02:10:11.099Z,23.40
2022-11-15T02:12:39.700Z,22.77
2022-11-15T02:15:09.625Z,23.80
2022-11-15T02:17:51.607Z,21.73
2022-11-15T02:20:53.869Z,22.07
2022-11-15T02:23:57.760Z,22.07
2022-11-15T02:26:53.677Z,22.07
2022-11-15T02:29:38.857Z,23.00
2022-11-15T02:32:15.944Z,22.60
2022-11-15T02:34:53.354Z,22.20
2022-11-15T02:37:29.102Z,21.63
2022-11-15T02:40:04.710Z,22.30
2022-11-15T02:42:55.080Z,23.37
2022-11-15T02:45:27.922Z,23.10
2022-11-15T02:48:01.542Z,23.20
2022-11-15T02:50:31.962Z,22.17
2022-11-15T02:52:59.866Z,21.70
2022-11-15T02:55:33.245Z,20.50
2022-11-15T02:58:17.302Z,21.17
2022-11-15T03:00:55.949Z,19.77
2022-11-15T03:03:42.616Z,19.57
2022-11-15T03:06:21.799Z,18.03
2022-11-15T03:08:56.757Z,18.23
2022-11-15T03:11:26.106Z,18.90
2022-11-15T03:14:00.809Z,16.23
2022-11-15T03:16:34.409Z,18.40
2022-11-15T03:19:09.023Z,17.43
2022-11-15T03:21:41.053Z,17.07
2022-11-15T03:24:10.635Z,17.60
2022-11-15T03:26:43.187Z,17.10
2022-11-15T03:29:15.661Z,16.60
2022-11-15T03:31:51.478Z,16.77
2022-11-15T03:34:28.556Z,17.23
2022-11-15T03:36:56.853Z,17.03
2022-11-15T03:39:26.072Z,16.73
2022-11-15T03:42:04.312Z,16.23
2022-11-15T03:44:42.424Z,17.00
2022-11-15T03:47:14.780Z,16.83
2022-11-15T03:49:48.579Z,16.70
2022-11-15T03:52:20.055Z,16.67
2022-11-15T03:54:52.793Z,16.10
2022-11-15T03:57:20.878Z,16.83
2022-11-15T03:59:48.845Z,16.73
2022-11-15T04:02:16.826Z,15.93
2022-11-15T04:04:46.116Z,16.03
2022-11-15T04:07:14.101Z,15.70
2022-11-15T04:09:56.307Z,16.17
2022-11-15T04:12:31.847Z,16.67
2022-11-15T04:15:11.719Z,17.13
2022-11-15T04:17:41.347Z,17.60
2022-11-15T04:20:31.887Z,16.90
2022-11-15T04:23:18.741Z,17.43
2022-11-15T04:25:47.702Z,16.77
2022-11-15T04:28:15.601Z,16.37
2022-11-15T04:30:43.491Z,18.07
2022-11-15T04:33:11.540Z,18.10
2022-11-15T04:35:41.075Z,18.57
2022-11-15T04:38:10.144Z,18.73
2022-11-15T04:40:39.868Z,19.37
2022-11-15T04:43:07.751Z,19.77
2022-11-15T04:45:35.635Z,21.07
2022-11-15T04:48:03.497Z,20.00
2022-11-15T04:50:31.410Z,21.57
2022-11-15T04:53:00.880Z,20.67
2022-11-15T04:55:28.803Z,19.10
2022-11-15T04:58:01.248Z,21.27
2022-11-15T05:00:30.548Z,20.90
2022-11-15T05:03:16.229Z,20.03
2022-11-15T05:05:44.574Z,18.07
2022-11-15T05:08:13.885Z,16.07
2022-11-15T05:10:41.838Z,16.70
2022-11-15T05:13:09.791Z,18.13
2022-11-15T05:15:37.727Z,16.20
2022-11-15T05:18:05.672Z,16.80
2022-11-15T05:20:33.642Z,16.93
2022-11-15T05:23:01.678Z,12.43
2022-11-15T05:25:31.076Z,11.30
2022-11-15T05:27:59.106Z,8.70
2022-11-15T05:30:27.075Z,9.77
2022-11-15T05:32:55.855Z,8.53
2022-11-15T05:35:35.135Z,9.60
2022-11-15T05:38:03.130Z,8.30
2022-11-15T05:40:33.521Z,8.77
2022-11-15T05:43:04.058Z,8.53
2022-11-15T05:45:33.570Z,8.57
2022-11-15T05:48:06.832Z,8.13
2022-11-15T05:50:35.716Z,7.33
2022-11-15T05:53:05.463Z,8.30
2022-11-15T05:55:34.990Z,8.13
2022-11-15T05:58:03.548Z,8.23
2022-11-15T06:00:42.125Z,8.17
2022-11-15T06:03:10.697Z,7.70
2022-11-15T06:05:39.435Z,7.43
2022-11-15T06:08:07.624Z,7.27
2022-11-15T06:10:37.203Z,7.17
2022-11-15T06:13:07.185Z,7.97
2022-11-15T06:15:36.008Z,7.90
2022-11-15T06:18:04.533Z,8.40
2022-11-15T06:20:32.650Z,7.50
2022-11-15T06:23:01.048Z,8.07
2022-11-15T06:25:29.982Z,9.40
2022-11-15T06:28:01.992Z,9.10
2022-11-15T06:30:31.186Z,10.87
2022-11-15T06:33:04.115Z,11.97
2022-11-15T06:35:35.274Z,11.60
2022-11-15T06:38:08.464Z,10.73
2022-11-15T06:40:37.196Z,11.03
2022-11-15T06:43:08.301Z,10.87
2022-11-15T06:45:36.398Z,11.20
2022-11-15T06:48:04.490Z,10.67
2022-11-15T06:50:32.624Z,11.33
2022-11-15T06:53:04.079Z,11.33
2022-11-15T06:55:32.516Z,10.00
2022-11-15T06:58:00.519Z,9.87
2022-11-15T07:00:30.022Z,10.17
2022-11-15T07:03:02.320Z,10.70
2022-11-15T07:05:31.627Z,10.83
2022-11-15T07:08:01.049Z,11.30
2022-11-15T07:10:29.586Z,9.60
2022-11-15T07:12:58.438Z,9.77
2022-11-15T07:15:28.123Z,9.43
2022-11-15T07:17:58.874Z,9.23
2022-11-15T07:20:27.242Z,9.47
2022-11-15T07:23:05.060Z,8.87
2022-11-15T07:25:33.340Z,9.00
2022-11-15T07:28:02.385Z,8.50
2022-11-15T07:30:31.314Z,9.20
2022-11-15T07:33:02.735Z,9.53
2022-11-15T07:35:37.148Z,10.00
2022-11-15T07:40:49.857Z,8.80
2022-11-15T07:43:24.879Z,9.67
2022-11-15T07:45:58.611Z,21.63
2022-11-15T07:48:42.978Z,9.97
2022-11-15T07:51:14.946Z,9.13
2022-11-15T07:53:44.449Z,10.30
2022-11-15T07:56:12.609Z,10.03
2022-11-15T07:58:40.844Z,9.93
2022-11-15T08:01:10.617Z,9.63
2022-11-15T08:03:40.268Z,9.93
2022-11-15T08:06:08.837Z,10.00
2022-11-15T08:08:37.393Z,11.13
2022-11-15T08:11:06.935Z,11.03
2022-11-15T08:13:35.366Z,10.63
2022-11-15T08:16:06.623Z,10.93
2022-11-15T08:18:34.781Z,10.87
2022-11-15T08:21:04.598Z,16.90
2022-11-15T08:23:40.064Z,13.97
2022-11-15T08:26:08.283Z,13.10
2022-11-15T08:28:36.800Z,12.60
2022-11-15T08:31:07.749Z,14.40
2022-11-15T08:33:36.197Z,14.77
2022-11-15T08:36:07.505Z,13.20
2022-11-15T08:38:36.151Z,12.60
2022-11-15T08:41:08.392Z,11.60
2022-11-15T08:43:39.829Z,13.23
2022-11-15T08:46:07.961Z,12.30
2022-11-15T08:48:36.669Z,12.93
2022-11-15T08:51:08.121Z,17.23
2022-11-15T08:53:36.695Z,13.50
2022-11-15T08:56:05.318Z,13.40
2022-11-15T08:58:34.515Z,12.77
2022-11-15T09:01:03.252Z,13.37
2022-11-15T09:03:33.134Z,14.07
2022-11-15T09:06:04.529Z,13.73
2022-11-15T09:08:47.605Z,13.73
2022-11-15T09:11:17.755Z,13.70
2022-11-15T09:13:45.951Z,13.20
2022-11-15T09:16:41.431Z,13.57
2022-11-15T09:19:11.816Z,12.63
2022-11-15T09:21:40.583Z,14.30
2022-11-15T09:24:10.302Z,14.03
2022-11-15T09:26:38.531Z,13.60
2022-11-15T09:29:10.986Z,14.87
2022-11-15T09:31:39.082Z,14.53
2022-11-15T09:34:07.258Z,14.30
2022-11-15T09:36:35.355Z,14.53
2022-11-15T09:39:03.959Z,15.23
2022-11-15T09:42:09.639Z,14.37
2022-11-15T09:48:14.521Z,15.17
2022-11-15T09:50:47.916Z,15.27
2022-11-15T09:53:50.746Z,15.17
2022-11-15T09:56:20.702Z,15.30
2022-11-15T09:58:59.168Z,14.57
2022-11-15T10:01:39.080Z,16.43
2022-11-15T10:04:11.814Z,14.90
2022-11-15T10:06:49.306Z,16.07
2022-11-15T10:09:30.287Z,16.27
2022-11-15T10:12:03.514Z,15.60
2022-11-15T10:14:33.821Z,16.80
2022-11-15T10:17:20.698Z,17.33
2022-11-15T10:20:05.019Z,17.07
2022-11-15T10:22:40.825Z,17.53
2022-11-15T10:25:24.877Z,17.65
2022-11-15T10:27:57.278Z,17.97
2022-11-15T10:30:33.627Z,18.87
2022-11-15T10:33:13.790Z,16.20
2022-11-15T10:35:45.096Z,19.08
2022-11-15T10:38:14.892Z,18.27
2022-11-15T10:40:44.991Z,17.70
2022-11-15T10:43:19.016Z,19.40
2022-11-15T10:45:49.895Z,18.13
2022-11-15T10:48:27.506Z,18.85
2022-11-15T10:50:58.321Z,20.05
2022-11-15T10:53:33.175Z,19.60
2022-11-15T10:56:05.921Z,19.50
2022-11-15T10:58:41.778Z,19.40
2022-11-15T11:01:16.252Z,20.80
2022-11-15T11:03:46.574Z,20.10
2022-11-15T11:06:19.284Z,21.88
2022-11-15T11:09:01.755Z,22.05
2022-11-15T11:11:47.479Z,22.05
2022-11-15T11:14:29.872Z,23.75
2022-11-15T11:17:05.555Z,21.05
2022-11-15T11:19:56.031Z,20.63
2022-11-15T11:22:34.679Z,19.95
2022-11-15T11:25:19.821Z,19.67
2022-11-15T11:28:00.801Z,18.90
2022-11-15T11:30:42.483Z,18.05
2022-11-15T11:33:19.081Z,19.13
2022-11-15T11:35:58.379Z,18.67
2022-11-15T11:38:41.029Z,20.63
2022-11-15T11:41:22.593Z,17.65
2022-11-15T11:43:58.783Z,18.85
2022-11-15T11:46:50.371Z,17.83
2022-11-15T11:49:24.371Z,18.00
2022-11-15T11:51:58.122Z,18.35
2022-11-15T11:54:37.087Z,18.38
2022-11-15T11:57:12.242Z,18.30
2022-11-15T11:59:48.032Z,17.15
2022-11-15T12:02:27.449Z,18.20
2022-11-15T12:05:00.304Z,18.10
2022-11-15T12:07:33.423Z,17.15
2022-11-15T12:10:07.626Z,19.27
2022-11-15T12:12:42.888Z,17.08
2022-11-15T12:15:19.873Z,17.92
2022-11-15T12:17:49.363Z,18.10
2022-11-15T12:20:21.667Z,18.17
2022-11-15T12:22:59.108Z,18.10
2022-11-15T12:25:34.921Z,16.95
2022-11-15T12:28:14.203Z,17.17
2022-11-15T12:33:57.441Z,17.13
2022-11-15T12:36:41.322Z,17.92
2022-11-15T12:39:10.881Z,17.42
2022-11-15T12:41:41.532Z,17.70
2022-11-15T12:44:16.837Z,17.60
2022-11-15T12:47:25.591Z,17.30
2022-11-15T12:50:02.763Z,17.45
2022-11-15T12:52:31.561Z,17.40
2022-11-15T12:55:06.283Z,17.48
2022-11-15T12:57:41.152Z,19.15
2022-11-15T13:00:48.119Z,19.13
2022-11-15T13:03:26.760Z,17.98
2022-11-15T13:06:11.728Z,17.92
2022-11-15T13:08:48.422Z,17.92
2022-11-15T13:11:53.350Z,18.25
2022-11-15T13:14:58.230Z,17.48
2022-11-15T13:17:38.964Z,17.42
2022-11-15T13:20:32.804Z,17.58
2022-11-15T13:23:12.739Z,17.25
2022-11-15T13:26:13.925Z,18.40
2022-11-15T13:28:46.816Z,18.92
2022-11-15T13:31:38.287Z,19.05
2022-11-15T13:34:53.582Z,17.85
2022-11-15T13:37:30.925Z,18.33
2022-11-15T13:40:20.450Z,18.88
2022-11-15T13:42:49.090Z,19.00
2022-11-15T13:45:19.947Z,20.25
2022-11-15T13:47:54.132Z,17.98
2022-11-15T13:50:27.044Z,18.85
2022-11-15T13:52:57.687Z,17.85
2022-11-15T13:55:29.560Z,18.95
2022-11-15T13:58:00.864Z,19.33
2022-11-15T14:00:37.714Z,17.92
2022-11-15T14:03:17.657Z,19.45
2022-11-15T14:05:46.027Z,18.45
2022-11-15T14:08:25.550Z,19.42
2022-11-15T14:11:14.897Z,20.05
2022-11-15T14:13:44.394Z,29.38
2022-11-15T14:16:18.592Z,19.52
2022-11-15T14:18:49.009Z,18.58
2022-11-15T14:21:18.342Z,17.67
2022-11-15T14:23:47.136Z,18.85
2022-11-15T14:26:33.420Z,19.15
2022-11-15T14:29:27.080Z,18.00
2022-11-15T14:31:55.595Z,17.08
2022-11-15T14:34:23.711Z,17.50
2022-11-15T14:36:52.879Z,17.17
2022-11-15T14:39:22.536Z,17.93
2022-11-15T14:41:52.565Z,19.30
2022-11-15T14:44:21.831Z,18.97
2022-11-15T14:46:50.012Z,18.13
2022-11-15T14:49:18.312Z,17.67
2022-11-15T14:51:46.467Z,19.27
2022-11-15T14:54:20.587Z,18.53
2022-11-15T14:56:48.780Z,18.90
2022-11-15T14:59:18.748Z,19.27
2022-11-15T15:01:47.519Z,19.30
2022-11-15T15:04:15.630Z,17.90
2022-11-15T15:06:44.741Z,19.33
2022-11-15T15:09:14.705Z,18.77
2022-11-15T15:11:47.881Z,17.27
2022-11-15T15:14:19.869Z,18.90
2022-11-15T15:16:57.727Z,17.20
2022-11-15T15:19:30.453Z,18.03
2022-11-15T15:24:55.877Z,17.63
2022-11-15T15:27:37.912Z,17.70
2022-11-15T15:30:09.985Z,16.93
2022-11-15T15:32:39.338Z,27.43
2022-11-15T15:35:12.076Z,18.30
2022-11-15T15:37:40.449Z,17.37
2022-11-15T15:40:17.042Z,21.00
2022-11-15T15:42:46.145Z,17.53
2022-11-15T15:45:21.975Z,19.53
2022-11-15T15:47:53.462Z,17.93
2022-11-15T15:50:27.581Z,18.07
2022-11-15T15:53:12.187Z,17.50
2022-11-15T15:55:44.555Z,19.07
2022-11-15T15:58:12.768Z,18.37
2022-11-15T16:00:42.894Z,17.03
2022-11-15T16:03:25.446Z,19.67
2022-11-15T16:09:14.264Z,18.97
2022-11-15T16:12:08.666Z,17.60
2022-11-15T16:17:40.275Z,18.97
2022-11-15T16:23:13.316Z,16.63
2022-11-15T16:25:44.788Z,17.27
2022-11-15T16:28:20.261Z,16.93
2022-11-15T16:30:52.432Z,17.77
2022-11-15T16:33:30.390Z,18.13
2022-11-15T16:35:58.890Z,17.83
2022-11-15T16:38:29.040Z,19.57
2022-11-15T16:40:57.607Z,28.90
2022-11-15T16:43:26.476Z,28.70
2022-11-15T16:45:55.184Z,25.83
2022-11-15T16:48:26.655Z,24.67
2022-11-15T16:50:58.577Z,20.73
2022-11-15T16:53:29.239Z,17.50
2022-11-15T16:55:57.989Z,20.90
2022-11-15T16:58:28.055Z,20.13
2022-11-15T17:00:59.672Z,19.17
2022-11-15T17:03:27.809Z,19.80
2022-11-15T17:05:59.717Z,20.73
2022-11-15T17:08:29.477Z,17.87
2022-11-15T17:11:01.987Z,18.83
2022-11-15T17:13:32.312Z,21.30
2022-11-15T17:18:53.980Z,19.10
2022-11-15T17:21:24.116Z,21.00
2022-11-15T17:23:53.592Z,20.73
2022-11-15T17:26:30.174Z,20.60
2022-11-15T17:29:01.030Z,19.57
2022-11-15T17:31:30.785Z,22.23
2022-11-15T17:33:58.984Z,22.40
2022-11-15T17:36:27.016Z,21.17
2022-11-15T17:38:59.786Z,21.87
2022-11-15T17:41:28.756Z,21.27
2022-11-15T17:43:58.485Z,20.67
2022-11-15T17:46:28.652Z,21.27
2022-11-15T17:48:57.542Z,20.73
2022-11-15T17:51:25.910Z,21.00
2022-11-15T17:53:53.996Z,21.53
2022-11-15T17:56:31.620Z,26.33
2022-11-15T17:59:02.146Z,22.23
2022-11-15T18:01:31.660Z,21.97
2022-11-15T18:04:02.105Z,21.00
2022-11-15T18:06:32.138Z,22.63
2022-11-15T18:09:08.188Z,22.27
2022-11-15T18:11:39.673Z,21.43
2022-11-15T18:14:11.284Z,22.77
2022-11-15T18:16:40.360Z,21.43
2022-11-15T18:19:13.358Z,22.87
2022-11-15T18:21:59.030Z,23.00
2022-11-15T18:24:31.270Z,21.33
2022-11-15T18:27:03.173Z,23.37
2022-11-15T18:29:32.563Z,21.23
2022-11-15T18:32:00.688Z,22.03
2022-11-15T18:34:39.711Z,22.73
2022-11-15T18:37:08.486Z,24.63
2022-11-15T18:39:36.722Z,23.37
2022-11-15T18:42:06.683Z,26.33
2022-11-15T18:44:34.854Z,27.97
2022-11-15T18:47:04.664Z,29.57
2022-11-15T18:49:32.835Z,34.43
2022-11-15T18:52:00.842Z,32.30
2022-11-15T18:54:31.350Z,31.00
2022-11-15T18:56:59.982Z,32.43
2022-11-15T18:59:30.769Z,32.63
2022-11-15T19:01:59.704Z,31.57
2022-11-15T19:04:27.980Z,29.13
2022-11-15T19:06:56.233Z,27.83
2022-11-15T19:09:27.426Z,27.83
2022-11-15T19:11:55.702Z,28.63
2022-11-15T19:14:26.431Z,28.40
2022-11-15T19:16:56.144Z,28.57
2022-11-15T19:19:26.476Z,27.67
2022-11-15T19:21:57.968Z,27.97
2022-11-15T19:24:45.004Z,28.53
2022-11-15T19:27:13.253Z,27.40
2022-11-15T19:29:42.085Z,24.83
2022-11-15T19:32:11.733Z,24.80
2022-11-15T19:34:41.741Z,27.20
2022-11-15T19:37:10.604Z,25.93
2022-11-15T19:39:41.169Z,25.63
2022-11-15T19:42:09.556Z,24.27
2022-11-15T19:44:38.200Z,25.23
2022-11-15T19:47:09.379Z,24.03
2022-11-15T19:49:39.524Z,24.13
2022-11-15T19:52:10.272Z,23.03
2022-11-15T19:54:38.471Z,21.93
2022-11-15T19:57:08.110Z,23.27
2022-11-15T19:59:36.209Z,23.73
2022-11-15T20:02:04.343Z,23.87
2022-11-15T20:04:32.517Z,22.97
2022-11-15T20:07:02.173Z,24.27
2022-11-15T20:09:30.959Z,26.87
2022-11-15T20:11:59.221Z,26.27
2022-11-15T20:14:29.431Z,26.63
2022-11-15T20:16:58.293Z,28.57
2022-11-15T20:19:26.348Z,29.40
2022-11-15T20:21:57.566Z,29.57
2022-11-15T20:24:29.381Z,28.57
2022-11-15T20:26:58.564Z,29.30
2022-11-15T20:29:26.607Z,32.73
2022-11-15T20:31:55.731Z,31.40
2022-11-15T20:34:23.899Z,31.47
2022-11-15T20:36:51.835Z,33.83
2022-11-15T20:39:20.969Z,34.83
2022-11-15T20:41:50.449Z,35.63
2022-11-15T20:44:18.414Z,36.37
2022-11-15T20:46:47.567Z,34.20
2022-11-15T20:49:15.615Z,35.23
2022-11-15T20:51:45.109Z,35.40
2022-11-15T20:54:13.367Z,35.40
2022-11-15T20:56:41.455Z,34.53
2022-11-15T20:59:11.428Z,33.07
2022-11-15T21:01:39.890Z,32.50
2022-11-15T21:04:08.048Z,34.30
2022-11-15T21:06:36.405Z,33.70
2022-11-15T21:09:22.192Z,34.23
2022-11-15T21:12:08.128Z,33.60
2022-11-15T21:14:38.536Z,35.33
2022-11-15T21:17:06.785Z,32.57
2022-11-15T21:19:37.102Z,34.27
2022-11-15T21:22:08.684Z,29.87
2022-11-15T21:24:36.817Z,31.50
2022-11-15T21:27:05.141Z,29.07
2022-11-15T21:29:39.127Z,30.27
2022-11-15T21:32:10.028Z,31.40
2022-11-15T21:34:38.246Z,30.23
2022-11-15T21:37:06.440Z,30.27
2022-11-15T21:39:37.089Z,29.43
2022-11-15T21:42:05.659Z,29.47
2022-11-15T21:44:33.704Z,29.30
2022-11-15T21:47:02.418Z,29.93
2022-11-15T21:49:32.764Z,30.43
2022-11-15T21:52:00.906Z,29.17
2022-11-15T21:54:29.057Z,29.40
2022-11-15T21:56:57.081Z,28.90
2022-11-15T21:59:25.239Z,28.90
2022-11-15T22:02:10.721Z,29.23
2022-11-15T22:04:40.128Z,30.17
2022-11-15T22:10:03.918Z,30.30
2022-11-15T22:12:32.125Z,31.13
2022-11-15T22:15:00.176Z,30.70
2022-11-15T22:17:48.379Z,30.83
2022-11-15T22:23:08.061Z,29.27
2022-11-15T22:25:36.119Z,29.93
2022-11-15T22:28:04.439Z,30.43
2022-11-15T22:30:32.605Z,32.93
2022-11-15T22:33:00.752Z,30.33
2022-11-15T22:35:30.307Z,30.50
2022-11-15T22:37:58.767Z,29.17
2022-11-15T22:40:26.977Z,29.03
2022-11-15T22:42:55.006Z,26.77
2022-11-15T22:45:23.314Z,29.07
2022-11-15T22:47:51.528Z,29.43
2022-11-15T22:50:20.213Z,30.23
2022-11-15T22:52:49.816Z,29.57
2022-11-15T22:55:20.096Z,29.87
2022-11-15T22:57:48.153Z,30.67
2022-11-15T23:00:19.145Z,29.93
2022-11-15T23:02:51.777Z,29.07
2022-11-15T23:05:21.512Z,29.93
2022-11-15T23:07:51.407Z,29.43
2022-11-15T23:10:37.195Z,29.33
2022-11-15T23:13:18.469Z,29.93
2022-11-15T23:16:06.106Z,28.00
2022-11-15T23:18:37.839Z,29.73
2022-11-15T23:21:12.874Z,28.90
2022-11-15T23:23:41.386Z,28.17
2022-11-15T23:26:09.824Z,29.43
2022-11-15T23:28:37.826Z,28.93
2022-11-15T23:31:24.477Z,27.73
2022-11-15T23:34:01.360Z,29.33
2022-11-15T23:36:30.079Z,28.60
2022-11-15T23:38:59.498Z,28.80
2022-11-15T23:41:27.527Z,27.87
2022-11-15T23:43:55.998Z,30.00
2022-11-15T23:46:23.963Z,29.60
2022-11-15T23:48:51.942Z,27.63
2022-11-15T23:51:20.098Z,30.00
2022-11-15T23:53:48.193Z,28.37
2022-11-15T23:56:19.634Z,30.20
2022-11-15T23:58:48.198Z,28.47
